Hopkinsville, KY

9:42 AM CST on January 29, 2015 (GMT -0600)
Calvin Drive | Change Station
CLOSE
Current Station
Personal Weather Station
Location: Hopkinsville, KY
Elevation: 541 ft
Nearby Weather Stations
Active Advisory: Special Statement

Elev 541 ft 36.84 °N, 87.47 °W | Updated 0 second ago

Clear
Clear
58.1 °F
Feels Like 58.1 °F
N
15.2
Wind Variable Wind from West
Gusts 19.0 mph

Today
High -- | Low -- °F
--% Chance of Precip.
Yesterday
High -- | Low -- °F
Precip. -- in
6:54 AM 5:11 PM
Waxing Gibbous, 75% visible
Pressure 29.99 in
Visibility 7.0 miles
Clouds Clear
Dew Point 44 °F
Humidity 59%
Rainfall 0.00 in
Snow Depth Not available.
UV 2 out of 12
Pollen 2.20 out of 12
Air Quality Not available.
Flu Activity Not available.
METAR KHOP 291458Z AUTO 22020G27KT 7SM CLR 14/04 A2998 RMK AO2 PK WND 22027/35 SLP154 T01380040 53009

More Conditions Fewer Conditions

Pressure 29.99 in
Visibility 7.0 miles
Clouds Clear
Dew Point 44 °F
Humidity 59%
Rainfall 0.00 in
Snow Depth Not available.
UV 2 out of 12
Pollen 2.20 out of 12
Air Quality Not available.
Flu Activity Not available.
METAR KHOP 291458Z AUTO 22020G27KT 7SM CLR 14/04 A2998 RMK AO2 PK WND 22027/35 SLP154 T01380040 53009

More Conditions Fewer Conditions

10-Day Weather Forecast

Almanac

Astronomy

Jan. 29, 2015 Rise Set
Actual Time
Civil Twilight
Nautical Twilight
Astronomical Twilight
Moon
Length of Visible Light
Length of Day
Tomorrow will be .
, % of the Moon is Illuminated

Today's Extremes

State Highs State Lows

Community

WunderPhotos

Upload Photos

1,791,456 photos uploaded!

WunderBlogs® & News

Nearby

Air Quality

  Air Quality AQ Index Pollutant
Not available.

Snow Depth

Station Depth Elevation

Earthquake Activity

City Distance Mag. Time & Date
Minimum magnitude displayed is 2.5.

Coastal Water Temperatures

Place Temperature

Nearby Weather Stations